sensor_id;sensor_type;location;lat;lon;timestamp;pressure;altitude;pressure_sealevel;temperature
74374;BMP180;62809;51.090;-115.358;2022-09-09T00:09:21;87355.00;;;25.30
74374;BMP180;62809;51.090;-115.358;2022-09-09T00:12:11;87361.20;;;25.30
74374;BMP180;62809;51.090;-115.358;2022-09-09T00:14:51;87357.60;;;25.30
74374;BMP180;62809;51.090;-115.358;2022-09-09T00:28:33;87354.00;;;25.30
74374;BMP180;62809;51.090;-115.358;2022-09-09T00:31:20;87356.40;;;25.30
74374;BMP180;62809;51.090;-115.358;2022-09-09T00:33:53;87362.60;;;25.30
74374;BMP180;62809;51.090;-115.358;2022-09-09T00:36:26;87359.40;;;25.28
74374;BMP180;62809;51.090;-115.358;2022-09-09T00:39:02;87357.20;;;25.28
74374;BMP180;62809;51.090;-115.358;2022-09-09T00:41:49;87361.80;;;25.30
74374;BMP180;62809;51.090;-115.358;2022-09-09T00:44:37;87359.20;;;25.30
74374;BMP180;62809;51.090;-115.358;2022-09-09T00:52:55;87364.60;;;25.28
74374;BMP180;62809;51.090;-115.358;2022-09-09T00:55:51;87367.40;;;25.24
74374;BMP180;62809;51.090;-115.358;2022-09-09T00:58:20;87371.40;;;25.20
74374;BMP180;62809;51.090;-115.358;2022-09-09T01:03:40;87380.60;;;25.20
74374;BMP180;62809;51.090;-115.358;2022-09-09T01:06:35;87383.40;;;25.20
74374;BMP180;62809;51.090;-115.358;2022-09-09T01:12:37;87391.40;;;25.20
74374;BMP180;62809;51.090;-115.358;2022-09-09T01:15:26;87393.60;;;25.20
74374;BMP180;62809;51.090;-115.358;2022-09-09T01:18:22;87404.00;;;25.18
74374;BMP180;62809;51.090;-115.358;2022-09-09T01:29:06;87411.20;;;25.10
74374;BMP180;62809;51.090;-115.358;2022-09-09T01:31:51;87413.80;;;25.10
74374;BMP180;62809;51.090;-115.358;2022-09-09T01:34:23;87413.60;;;25.10
74374;BMP180;62809;51.090;-115.358;2022-09-09T01:39:28;87414.80;;;25.10
74374;BMP180;62809;51.090;-115.358;2022-09-09T01:41:57;87416.80;;;25.10
74374;BMP180;62809;51.090;-115.358;2022-09-09T01:44:25;87421.80;;;25.08
74374;BMP180;62809;51.090;-115.358;2022-09-09T01:46:56;87426.80;;;25.08
74374;BMP180;62809;51.090;-115.358;2022-09-09T01:49:23;87432.00;;;25.04
74374;BMP180;62809;51.090;-115.358;2022-09-09T01:51:54;87432.40;;;25.00
74374;BMP180;62809;51.090;-115.358;2022-09-09T01:54:26;87429.60;;;25.02
74374;BMP180;62809;51.090;-115.358;2022-09-09T01:57:17;87429.40;;;25.00
74374;BMP180;62809;51.090;-115.358;2022-09-09T02:00:07;87433.60;;;25.00
74374;BMP180;62809;51.090;-115.358;2022-09-09T02:07:53;87435.00;;;25.00
74374;BMP180;62809;51.090;-115.358;2022-09-09T02:13:21;87436.60;;;25.00
74374;BMP180;62809;51.090;-115.358;2022-09-09T02:18:28;87437.80;;;25.00
74374;BMP180;62809;51.090;-115.358;2022-09-09T02:20:59;87441.60;;;24.98
74374;BMP180;62809;51.090;-115.358;2022-09-09T02:23:28;87441.40;;;24.90
74374;BMP180;62809;51.090;-115.358;2022-09-09T02:25:58;87442.20;;;24.90
74374;BMP180;62809;51.090;-115.358;2022-09-09T02:28:31;87449.00;;;24.90
74374;BMP180;62809;51.090;-115.358;2022-09-09T02:31:00;87452.80;;;24.90
74374;BMP180;62809;51.090;-115.358;2022-09-09T02:33:35;87455.00;;;24.90
74374;BMP180;62809;51.090;-115.358;2022-09-09T02:36:05;87461.00;;;24.90
74374;BMP180;62809;51.090;-115.358;2022-09-09T02:38:47;87460.60;;;24.90
74374;BMP180;62809;51.090;-115.358;2022-09-09T02:41:34;87461.60;;;24.90
74374;BMP180;62809;51.090;-115.358;2022-09-09T02:44:15;87463.20;;;24.90
74374;BMP180;62809;51.090;-115.358;2022-09-09T02:50:13;87470.60;;;24.80
74374;BMP180;62809;51.090;-115.358;2022-09-09T02:55:39;87477.60;;;24.80
74374;BMP180;62809;51.090;-115.358;2022-09-09T02:58:13;87479.80;;;24.80
74374;BMP180;62809;51.090;-115.358;2022-09-09T03:00:50;87478.60;;;24.80
74374;BMP180;62809;51.090;-115.358;2022-09-09T03:03:19;87479.20;;;24.80
74374;BMP180;62809;51.090;-115.358;2022-09-09T03:05:47;87480.60;;;24.80
74374;BMP180;62809;51.090;-115.358;2022-09-09T03:08:17;87482.20;;;24.78
74374;BMP180;62809;51.090;-115.358;2022-09-09T03:10:44;87480.60;;;24.76
74374;BMP180;62809;51.090;-115.358;2022-09-09T03:13:13;87483.20;;;24.74
74374;BMP180;62809;51.090;-115.358;2022-09-09T03:15:42;87480.20;;;24.70
74374;BMP180;62809;51.090;-115.358;2022-09-09T03:18:08;87478.80;;;24.70
74374;BMP180;62809;51.090;-115.358;2022-09-09T03:20:35;87480.00;;;24.70
74374;BMP180;62809;51.090;-115.358;2022-09-09T03:23:03;87481.00;;;24.70
74374;BMP180;62809;51.090;-115.358;2022-09-09T03:25:30;87480.80;;;24.70
74374;BMP180;62809;51.090;-115.358;2022-09-09T03:28:01;87482.40;;;24.70
74374;BMP180;62809;51.090;-115.358;2022-09-09T03:30:28;87487.20;;;24.70
74374;BMP180;62809;51.090;-115.358;2022-09-09T03:32:56;87485.20;;;24.60
74374;BMP180;62809;51.090;-115.358;2022-09-09T03:35:24;87483.00;;;24.60
74374;BMP180;62809;51.090;-115.358;2022-09-09T03:37:51;87486.00;;;24.60
74374;BMP180;62809;51.090;-115.358;2022-09-09T03:40:18;87487.60;;;24.60
74374;BMP180;62809;51.090;-115.358;2022-09-09T03:42:47;87487.60;;;24.60
74374;BMP180;62809;51.090;-115.358;2022-09-09T03:45:15;87488.00;;;24.58
74374;BMP180;62809;51.090;-115.358;2022-09-09T03:47:43;87492.00;;;24.50
74374;BMP180;62809;51.090;-115.358;2022-09-09T03:50:11;87492.60;;;24.50
74374;BMP180;62809;51.090;-115.358;2022-09-09T03:52:40;87494.20;;;24.50
74374;BMP180;62809;51.090;-115.358;2022-09-09T03:55:10;87498.00;;;24.50
74374;BMP180;62809;51.090;-115.358;2022-09-09T03:57:40;87501.40;;;24.50
74374;BMP180;62809;51.090;-115.358;2022-09-09T04:00:09;87501.20;;;24.46
74374;BMP180;62809;51.090;-115.358;2022-09-09T04:02:38;87498.20;;;24.40
74374;BMP180;62809;51.090;-115.358;2022-09-09T04:05:06;87498.20;;;24.40
74374;BMP180;62809;51.090;-115.358;2022-09-09T04:07:36;87499.40;;;24.40
74374;BMP180;62809;51.090;-115.358;2022-09-09T04:10:04;87500.60;;;24.40
74374;BMP180;62809;51.090;-115.358;2022-09-09T04:12:31;87505.00;;;24.40
74374;BMP180;62809;51.090;-115.358;2022-09-09T04:14:58;87503.00;;;24.40
74374;BMP180;62809;51.090;-115.358;2022-09-09T04:17:28;87504.20;;;24.40
74374;BMP180;62809;51.090;-115.358;2022-09-09T04:19:57;87504.80;;;24.40
74374;BMP180;62809;51.090;-115.358;2022-09-09T04:22:26;87508.00;;;24.34
74374;BMP180;62809;51.090;-115.358;2022-09-09T04:24:52;87515.40;;;24.30
74374;BMP180;62809;51.090;-115.358;2022-09-09T04:27:19;87513.60;;;24.30
74374;BMP180;62809;51.090;-115.358;2022-09-09T04:29:48;87521.00;;;24.30
74374;BMP180;62809;51.090;-115.358;2022-09-09T04:32:18;87521.80;;;24.30
74374;BMP180;62809;51.090;-115.358;2022-09-09T04:34:45;87521.00;;;24.30
74374;BMP180;62809;51.090;-115.358;2022-09-09T04:37:15;87523.60;;;24.30
74374;BMP180;62809;51.090;-115.358;2022-09-09T04:39:43;87531.00;;;24.30
74374;BMP180;62809;51.090;-115.358;2022-09-09T04:42:10;87533.60;;;24.26
74374;BMP180;62809;51.090;-115.358;2022-09-09T04:44:40;87534.00;;;24.20
74374;BMP180;62809;51.090;-115.358;2022-09-09T04:47:07;87541.00;;;24.20
74374;BMP180;62809;51.090;-115.358;2022-09-09T04:49:36;87540.20;;;24.20
74374;BMP180;62809;51.090;-115.358;2022-09-09T04:52:05;87544.80;;;24.20
74374;BMP180;62809;51.090;-115.358;2022-09-09T04:54:32;87547.60;;;24.20
74374;BMP180;62809;51.090;-115.358;2022-09-09T04:57:01;87547.00;;;24.20
74374;BMP180;62809;51.090;-115.358;2022-09-09T04:59:30;87549.60;;;24.18
74374;BMP180;62809;51.090;-115.358;2022-09-09T05:01:57;87552.40;;;24.14
74374;BMP180;62809;51.090;-115.358;2022-09-09T05:04:24;87559.00;;;24.10
74374;BMP180;62809;51.090;-115.358;2022-09-09T05:06:53;87554.20;;;24.10
74374;BMP180;62809;51.090;-115.358;2022-09-09T05:09:22;87558.80;;;24.10
74374;BMP180;62809;51.090;-115.358;2022-09-09T05:11:49;87562.00;;;24.10
74374;BMP180;62809;51.090;-115.358;2022-09-09T05:14:17;87560.20;;;24.10
74374;BMP180;62809;51.090;-115.358;2022-09-09T05:16:46;87562.80;;;24.10
74374;BMP180;62809;51.090;-115.358;2022-09-09T05:19:16;87565.40;;;24.10
74374;BMP180;62809;51.090;-115.358;2022-09-09T05:21:46;87565.80;;;24.04
74374;BMP180;62809;51.090;-115.358;2022-09-09T05:24:13;87562.00;;;24.00
74374;BMP180;62809;51.090;-115.358;2022-09-09T05:26:41;87561.40;;;24.00
74374;BMP180;62809;51.090;-115.358;2022-09-09T05:29:08;87559.40;;;24.00
74374;BMP180;62809;51.090;-115.358;2022-09-09T05:31:35;87564.80;;;24.00
74374;BMP180;62809;51.090;-115.358;2022-09-09T05:34:03;87560.00;;;24.00
74374;BMP180;62809;51.090;-115.358;2022-09-09T05:36:30;87565.20;;;24.00
74374;BMP180;62809;51.090;-115.358;2022-09-09T05:38:57;87565.00;;;23.96
74374;BMP180;62809;51.090;-115.358;2022-09-09T05:41:28;87564.80;;;23.90
74374;BMP180;62809;51.090;-115.358;2022-09-09T05:43:57;87568.40;;;23.90
74374;BMP180;62809;51.090;-115.358;2022-09-09T05:46:27;87575.00;;;23.90
74374;BMP180;62809;51.090;-115.358;2022-09-09T05:48:55;87575.00;;;23.90
74374;BMP180;62809;51.090;-115.358;2022-09-09T05:51:29;87572.20;;;23.90
74374;BMP180;62809;51.090;-115.358;2022-09-09T05:54:01;87576.20;;;23.90
74374;BMP180;62809;51.090;-115.358;2022-09-09T05:56:30;87580.00;;;23.90
74374;BMP180;62809;51.090;-115.358;2022-09-09T05:59:00;87590.40;;;23.90
74374;BMP180;62809;51.090;-115.358;2022-09-09T06:01:34;87587.00;;;23.82
74374;BMP180;62809;51.090;-115.358;2022-09-09T06:04:02;87591.80;;;23.80
74374;BMP180;62809;51.090;-115.358;2022-09-09T06:06:36;87600.00;;;23.80
74374;BMP180;62809;51.090;-115.358;2022-09-09T06:09:08;87612.00;;;23.80
74374;BMP180;62809;51.090;-115.358;2022-09-09T06:11:39;87630.00;;;23.80
74374;BMP180;62809;51.090;-115.358;2022-09-09T06:14:07;87647.20;;;23.80
74374;BMP180;62809;51.090;-115.358;2022-09-09T06:16:37;87664.20;;;23.80
74374;BMP180;62809;51.090;-115.358;2022-09-09T06:19:07;87663.60;;;23.78
74374;BMP180;62809;51.090;-115.358;2022-09-09T06:21:36;87687.40;;;23.70
74374;BMP180;62809;51.090;-115.358;2022-09-09T06:24:05;87705.00;;;23.70
74374;BMP180;62809;51.090;-115.358;2022-09-09T06:26:38;87712.80;;;23.70
74374;BMP180;62809;51.090;-115.358;2022-09-09T06:29:10;87721.60;;;23.70
74374;BMP180;62809;51.090;-115.358;2022-09-09T06:31:38;87731.80;;;23.70
74374;BMP180;62809;51.090;-115.358;2022-09-09T06:34:08;87739.80;;;23.70
74374;BMP180;62809;51.090;-115.358;2022-09-09T06:36:38;87746.20;;;23.70
74374;BMP180;62809;51.090;-115.358;2022-09-09T06:39:06;87752.20;;;23.70
74374;BMP180;62809;51.090;-115.358;2022-09-09T06:41:35;87753.80;;;23.66
74374;BMP180;62809;51.090;-115.358;2022-09-09T06:44:06;87760.80;;;23.62
74374;BMP180;62809;51.090;-115.358;2022-09-09T06:46:34;87770.80;;;23.60
74374;BMP180;62809;51.090;-115.358;2022-09-09T06:49:02;87777.40;;;23.60
74374;BMP180;62809;51.090;-115.358;2022-09-09T06:51:38;87783.40;;;23.60
74374;BMP180;62809;51.090;-115.358;2022-09-09T06:54:13;87784.20;;;23.60
74374;BMP180;62809;51.090;-115.358;2022-09-09T06:56:42;87789.00;;;23.60
74374;BMP180;62809;51.090;-115.358;2022-09-09T06:59:12;87791.40;;;23.60
74374;BMP180;62809;51.090;-115.358;2022-09-09T07:01:43;87787.00;;;23.60
74374;BMP180;62809;51.090;-115.358;2022-09-09T07:04:18;87784.80;;;23.60
74374;BMP180;62809;51.090;-115.358;2022-09-09T07:06:46;87781.80;;;23.60
74374;BMP180;62809;51.090;-115.358;2022-09-09T07:09:16;87789.60;;;23.52
74374;BMP180;62809;51.090;-115.358;2022-09-09T07:11:49;87795.60;;;23.50
74374;BMP180;62809;51.090;-115.358;2022-09-09T07:14:19;87793.00;;;23.50
74374;BMP180;62809;51.090;-115.358;2022-09-09T07:16:47;87788.80;;;23.50
74374;BMP180;62809;51.090;-115.358;2022-09-09T07:19:17;87788.20;;;23.50
74374;BMP180;62809;51.090;-115.358;2022-09-09T07:21:46;87797.20;;;23.50
74374;BMP180;62809;51.090;-115.358;2022-09-09T07:24:22;87804.00;;;23.44
74374;BMP180;62809;51.090;-115.358;2022-09-09T07:26:51;87809.80;;;23.40
74374;BMP180;62809;51.090;-115.358;2022-09-09T07:29:21;87813.00;;;23.40
74374;BMP180;62809;51.090;-115.358;2022-09-09T07:31:50;87811.00;;;23.40
74374;BMP180;62809;51.090;-115.358;2022-09-09T07:34:19;87810.60;;;23.40
74374;BMP180;62809;51.090;-115.358;2022-09-09T07:36:46;87812.00;;;23.40
74374;BMP180;62809;51.090;-115.358;2022-09-09T07:39:14;87813.20;;;23.36
74374;BMP180;62809;51.090;-115.358;2022-09-09T07:41:49;87815.00;;;23.30
74374;BMP180;62809;51.090;-115.358;2022-09-09T07:44:24;87815.80;;;23.30
74374;BMP180;62809;51.090;-115.358;2022-09-09T07:46:51;87816.80;;;23.30
74374;BMP180;62809;51.090;-115.358;2022-09-09T07:49:20;87818.40;;;23.30
74374;BMP180;62809;51.090;-115.358;2022-09-09T07:52:08;87817.60;;;23.30
74374;BMP180;62809;51.090;-115.358;2022-09-09T07:54:38;87811.20;;;23.30
74374;BMP180;62809;51.090;-115.358;2022-09-09T07:57:19;87814.60;;;23.30
74374;BMP180;62809;51.090;-115.358;2022-09-09T07:59:52;87815.00;;;23.28
74374;BMP180;62809;51.090;-115.358;2022-09-09T08:02:22;87819.20;;;23.24
74374;BMP180;62809;51.090;-115.358;2022-09-09T08:04:51;87815.00;;;23.20
74374;BMP180;62809;51.090;-115.358;2022-09-09T08:07:18;87812.40;;;23.20
74374;BMP180;62809;51.090;-115.358;2022-09-09T08:09:50;87817.00;;;23.20
74374;BMP180;62809;51.090;-115.358;2022-09-09T08:12:21;87815.00;;;23.20
74374;BMP180;62809;51.090;-115.358;2022-09-09T08:14:53;87813.20;;;23.20
74374;BMP180;62809;51.090;-115.358;2022-09-09T08:17:21;87808.00;;;23.20
74374;BMP180;62809;51.090;-115.358;2022-09-09T08:19:58;87807.60;;;23.20
74374;BMP180;62809;51.090;-115.358;2022-09-09T08:22:32;87805.20;;;23.18
74374;BMP180;62809;51.090;-115.358;2022-09-09T08:25:00;87802.40;;;23.10
74374;BMP180;62809;51.090;-115.358;2022-09-09T08:27:33;87807.00;;;23.10
74374;BMP180;62809;51.090;-115.358;2022-09-09T08:30:00;87804.20;;;23.10
74374;BMP180;62809;51.090;-115.358;2022-09-09T08:32:28;87804.80;;;23.10
74374;BMP180;62809;51.090;-115.358;2022-09-09T08:34:55;87807.60;;;23.10
74374;BMP180;62809;51.090;-115.358;2022-09-09T08:37:23;87800.20;;;23.10
74374;BMP180;62809;51.090;-115.358;2022-09-09T08:39:50;87798.00;;;23.10
74374;BMP180;62809;51.090;-115.358;2022-09-09T08:42:41;87800.00;;;23.10
74374;BMP180;62809;51.090;-115.358;2022-09-09T08:48:23;87801.00;;;23.02
74374;BMP180;62809;51.090;-115.358;2022-09-09T08:50:57;87796.40;;;23.00
74374;BMP180;62809;51.090;-115.358;2022-09-09T08:53:42;87798.40;;;23.00
74374;BMP180;62809;51.090;-115.358;2022-09-09T08:56:18;87798.20;;;23.00
74374;BMP180;62809;51.090;-115.358;2022-09-09T08:58:53;87796.40;;;23.00
74374;BMP180;62809;51.090;-115.358;2022-09-09T09:12:43;87792.40;;;22.92
74374;BMP180;62809;51.090;-115.358;2022-09-09T09:15:32;87794.80;;;22.90
74374;BMP180;62809;51.090;-115.358;2022-09-09T09:18:42;87796.20;;;22.90
74374;BMP180;62809;51.090;-115.358;2022-09-09T09:23:56;87792.20;;;22.90
74374;BMP180;62809;51.090;-115.358;2022-09-09T09:26:32;87790.00;;;22.90
74374;BMP180;62809;51.090;-115.358;2022-09-09T09:29:19;87794.60;;;22.90
74374;BMP180;62809;51.090;-115.358;2022-09-09T09:32:26;87794.40;;;22.90
74374;BMP180;62809;51.090;-115.358;2022-09-09T09:34:58;87786.80;;;22.90
74374;BMP180;62809;51.090;-115.358;2022-09-09T09:37:35;87786.40;;;22.90
74374;BMP180;62809;51.090;-115.358;2022-09-09T09:40:17;87788.40;;;22.82
74374;BMP180;62809;51.090;-115.358;2022-09-09T09:43:00;87789.20;;;22.80
74374;BMP180;62809;51.090;-115.358;2022-09-09T09:45:41;87792.40;;;22.80
74374;BMP180;62809;51.090;-115.358;2022-09-09T09:48:20;87789.40;;;22.80
74374;BMP180;62809;51.090;-115.358;2022-09-09T09:50:57;87786.60;;;22.80
74374;BMP180;62809;51.090;-115.358;2022-09-09T09:53:31;87785.40;;;22.78
74374;BMP180;62809;51.090;-115.358;2022-09-09T09:56:11;87786.40;;;22.72
74374;BMP180;62809;51.090;-115.358;2022-09-09T10:04:00;87800.60;;;22.70
74374;BMP180;62809;51.090;-115.358;2022-09-09T10:06:36;87803.40;;;22.70
74374;BMP180;62809;51.090;-115.358;2022-09-09T10:09:27;87806.00;;;22.70
74374;BMP180;62809;51.090;-115.358;2022-09-09T10:15:15;87806.80;;;22.60
74374;BMP180;62809;51.090;-115.358;2022-09-09T10:18:22;87810.20;;;22.60
74374;BMP180;62809;51.090;-115.358;2022-09-09T10:29:32;87814.40;;;22.50
74374;BMP180;62809;51.090;-115.358;2022-09-09T10:32:23;87815.80;;;22.50
74374;BMP180;62809;51.090;-115.358;2022-09-09T10:38:11;87821.00;;;22.50
74374;BMP180;62809;51.090;-115.358;2022-09-09T10:54:54;87832.20;;;22.40
74374;BMP180;62809;51.090;-115.358;2022-09-09T10:57:41;87826.80;;;22.40
74374;BMP180;62809;51.090;-115.358;2022-09-09T11:00:25;87828.00;;;22.40
74374;BMP180;62809;51.090;-115.358;2022-09-09T11:03:04;87829.40;;;22.38
74374;BMP180;62809;51.090;-115.358;2022-09-09T11:05:43;87827.60;;;22.30
74374;BMP180;62809;51.090;-115.358;2022-09-09T11:08:23;87821.60;;;22.30
74374;BMP180;62809;51.090;-115.358;2022-09-09T11:11:03;87824.60;;;22.30
74374;BMP180;62809;51.090;-115.358;2022-09-09T11:14:05;87824.60;;;22.30
74374;BMP180;62809;51.090;-115.358;2022-09-09T11:16:42;87822.60;;;22.30
74374;BMP180;62809;51.090;-115.358;2022-09-09T11:19:41;87818.80;;;22.30
74374;BMP180;62809;51.090;-115.358;2022-09-09T11:22:39;87820.20;;;22.30
74374;BMP180;62809;51.090;-115.358;2022-09-09T11:25:43;87819.00;;;22.28
74374;BMP180;62809;51.090;-115.358;2022-09-09T11:40:25;87825.20;;;22.20
74374;BMP180;62809;51.090;-115.358;2022-09-09T11:43:09;87824.00;;;22.20
74374;BMP180;62809;51.090;-115.358;2022-09-09T11:45:54;87822.20;;;22.18
74374;BMP180;62809;51.090;-115.358;2022-09-09T11:51:29;87816.60;;;22.10
74374;BMP180;62809;51.090;-115.358;2022-09-09T11:54:28;87819.80;;;22.10
74374;BMP180;62809;51.090;-115.358;2022-09-09T11:56:58;87817.20;;;22.10
74374;BMP180;62809;51.090;-115.358;2022-09-09T11:59:32;87820.00;;;22.10
74374;BMP180;62809;51.090;-115.358;2022-09-09T12:02:36;87826.80;;;22.10
74374;BMP180;62809;51.090;-115.358;2022-09-09T12:05:41;87824.40;;;22.10
74374;BMP180;62809;51.090;-115.358;2022-09-09T12:08:21;87822.60;;;22.10
74374;BMP180;62809;51.090;-115.358;2022-09-09T12:10:59;87821.40;;;22.10
74374;BMP180;62809;51.090;-115.358;2022-09-09T12:13:32;87824.40;;;22.08
74374;BMP180;62809;51.090;-115.358;2022-09-09T12:16:01;87821.60;;;22.02
74374;BMP180;62809;51.090;-115.358;2022-09-09T12:18:42;87818.20;;;22.00
74374;BMP180;62809;51.090;-115.358;2022-09-09T12:21:34;87816.60;;;22.00
74374;BMP180;62809;51.090;-115.358;2022-09-09T12:24:16;87819.00;;;22.00
74374;BMP180;62809;51.090;-115.358;2022-09-09T12:32:31;87817.40;;;22.00
74374;BMP180;62809;51.090;-115.358;2022-09-09T12:35:27;87812.20;;;22.00
74374;BMP180;62809;51.090;-115.358;2022-09-09T12:38:05;87814.60;;;21.98
74374;BMP180;62809;51.090;-115.358;2022-09-09T12:40:36;87815.20;;;21.98
74374;BMP180;62809;51.090;-115.358;2022-09-09T12:43:26;87820.60;;;21.96
74374;BMP180;62809;51.090;-115.358;2022-09-09T12:46:16;87822.00;;;21.96
74374;BMP180;62809;51.090;-115.358;2022-09-09T12:49:26;87820.60;;;21.94
74374;BMP180;62809;51.090;-115.358;2022-09-09T12:51:56;87822.20;;;21.94
74374;BMP180;62809;51.090;-115.358;2022-09-09T12:54:28;87825.60;;;21.90
74374;BMP180;62809;51.090;-115.358;2022-09-09T12:56:58;87830.80;;;21.90
74374;BMP180;62809;51.090;-115.358;2022-09-09T12:59:39;87829.60;;;21.90
74374;BMP180;62809;51.090;-115.358;2022-09-09T13:02:58;87824.40;;;21.90
74374;BMP180;62809;51.090;-115.358;2022-09-09T13:05:38;87829.40;;;21.90
74374;BMP180;62809;51.090;-115.358;2022-09-09T13:08:09;87831.80;;;21.90
74374;BMP180;62809;51.090;-115.358;2022-09-09T13:10:46;87833.00;;;21.90
74374;BMP180;62809;51.090;-115.358;2022-09-09T13:13:26;87831.80;;;21.90
74374;BMP180;62809;51.090;-115.358;2022-09-09T13:15:58;87827.20;;;21.90
74374;BMP180;62809;51.090;-115.358;2022-09-09T13:18:35;87825.60;;;21.90
74374;BMP180;62809;51.090;-115.358;2022-09-09T13:21:06;87827.00;;;21.80
74374;BMP180;62809;51.090;-115.358;2022-09-09T13:23:37;87826.60;;;21.80
74374;BMP180;62809;51.090;-115.358;2022-09-09T13:28:48;87829.00;;;21.80
74374;BMP180;62809;51.090;-115.358;2022-09-09T13:31:36;87829.00;;;21.80
74374;BMP180;62809;51.090;-115.358;2022-09-09T13:34:31;87828.20;;;21.80
74374;BMP180;62809;51.090;-115.358;2022-09-09T13:37:26;87819.80;;;21.72
74374;BMP180;62809;51.090;-115.358;2022-09-09T13:39:54;87830.00;;;21.70
74374;BMP180;62809;51.090;-115.358;2022-09-09T13:42:29;87829.40;;;21.70
74374;BMP180;62809;51.090;-115.358;2022-09-09T13:44:58;87830.20;;;21.70
74374;BMP180;62809;51.090;-115.358;2022-09-09T13:47:38;87826.80;;;21.70
74374;BMP180;62809;51.090;-115.358;2022-09-09T13:52:56;87835.40;;;21.70
74374;BMP180;62809;51.090;-115.358;2022-09-09T13:55:30;87841.60;;;21.70
74374;BMP180;62809;51.090;-115.358;2022-09-09T13:58:03;87848.40;;;21.70
74374;BMP180;62809;51.090;-115.358;2022-09-09T14:00:42;87850.80;;;21.70
74374;BMP180;62809;51.090;-115.358;2022-09-09T14:03:10;87850.60;;;21.70
74374;BMP180;62809;51.090;-115.358;2022-09-09T14:05:38;87847.20;;;21.70
74374;BMP180;62809;51.090;-115.358;2022-09-09T14:08:25;87848.40;;;21.70
74374;BMP180;62809;51.090;-115.358;2022-09-09T14:10:56;87847.40;;;21.70
74374;BMP180;62809;51.090;-115.358;2022-09-09T14:13:25;87846.00;;;21.70
74374;BMP180;62809;51.090;-115.358;2022-09-09T14:15:56;87852.00;;;21.70
74374;BMP180;62809;51.090;-115.358;2022-09-09T14:18:24;87854.80;;;21.70
74374;BMP180;62809;51.090;-115.358;2022-09-09T14:20:52;87852.40;;;21.70
74374;BMP180;62809;51.090;-115.358;2022-09-09T14:23:19;87850.60;;;21.70
74374;BMP180;62809;51.090;-115.358;2022-09-09T14:25:48;87853.40;;;21.70
74374;BMP180;62809;51.090;-115.358;2022-09-09T14:28:15;87847.80;;;21.70
74374;BMP180;62809;51.090;-115.358;2022-09-09T14:30:44;87848.00;;;21.70
74374;BMP180;62809;51.090;-115.358;2022-09-09T14:33:14;87856.20;;;21.70
74374;BMP180;62809;51.090;-115.358;2022-09-09T14:35:44;87864.00;;;21.70
74374;BMP180;62809;51.090;-115.358;2022-09-09T14:38:13;87864.60;;;21.70
74374;BMP180;62809;51.090;-115.358;2022-09-09T14:40:40;87864.00;;;21.70
74374;BMP180;62809;51.090;-115.358;2022-09-09T14:43:11;87865.00;;;21.60
74374;BMP180;62809;51.090;-115.358;2022-09-09T14:45:38;87865.80;;;21.66
74374;BMP180;62809;51.090;-115.358;2022-09-09T14:48:05;87865.80;;;21.66
74374;BMP180;62809;51.090;-115.358;2022-09-09T14:50:34;87865.60;;;21.64
74374;BMP180;62809;51.090;-115.358;2022-09-09T14:53:07;87865.40;;;21.68
74374;BMP180;62809;51.090;-115.358;2022-09-09T14:55:37;87867.80;;;21.64
74374;BMP180;62809;51.090;-115.358;2022-09-09T14:58:05;87870.20;;;21.68
74374;BMP180;62809;51.090;-115.358;2022-09-09T15:00:33;87871.80;;;21.70
74374;BMP180;62809;51.090;-115.358;2022-09-09T15:03:04;87869.60;;;21.70
74374;BMP180;62809;51.090;-115.358;2022-09-09T15:05:32;87873.80;;;21.70
74374;BMP180;62809;51.090;-115.358;2022-09-09T15:07:59;87879.40;;;21.70
74374;BMP180;62809;51.090;-115.358;2022-09-09T15:10:29;87883.40;;;21.70
74374;BMP180;62809;51.090;-115.358;2022-09-09T15:12:59;87880.80;;;21.70
74374;BMP180;62809;51.090;-115.358;2022-09-09T15:15:26;87882.00;;;21.70
74374;BMP180;62809;51.090;-115.358;2022-09-09T15:17:53;87886.80;;;21.70
74374;BMP180;62809;51.090;-115.358;2022-09-09T15:20:20;87886.80;;;21.70
74374;BMP180;62809;51.090;-115.358;2022-09-09T15:22:50;87891.80;;;21.70
74374;BMP180;62809;51.090;-115.358;2022-09-09T15:25:18;87888.80;;;21.70
74374;BMP180;62809;51.090;-115.358;2022-09-09T15:27:45;87888.40;;;21.70
74374;BMP180;62809;51.090;-115.358;2022-09-09T15:30:13;87891.00;;;21.70
74374;BMP180;62809;51.090;-115.358;2022-09-09T15:32:41;87887.40;;;21.70
74374;BMP180;62809;51.090;-115.358;2022-09-09T15:35:08;87890.40;;;21.70
74374;BMP180;62809;51.090;-115.358;2022-09-09T15:37:37;87886.80;;;21.70
74374;BMP180;62809;51.090;-115.358;2022-09-09T15:40:04;87888.80;;;21.70
74374;BMP180;62809;51.090;-115.358;2022-09-09T15:42:32;87886.60;;;21.74
74374;BMP180;62809;51.090;-115.358;2022-09-09T15:45:00;87888.20;;;21.78
74374;BMP180;62809;51.090;-115.358;2022-09-09T15:47:27;87887.60;;;21.80
74374;BMP180;62809;51.090;-115.358;2022-09-09T15:49:55;87884.40;;;21.80
74374;BMP180;62809;51.090;-115.358;2022-09-09T15:52:24;87872.20;;;21.80
74374;BMP180;62809;51.090;-115.358;2022-09-09T15:54:52;87871.20;;;21.80
74374;BMP180;62809;51.090;-115.358;2022-09-09T15:57:19;87867.20;;;21.80
74374;BMP180;62809;51.090;-115.358;2022-09-09T15:59:46;87865.20;;;21.80
74374;BMP180;62809;51.090;-115.358;2022-09-09T16:02:14;87861.40;;;21.80
74374;BMP180;62809;51.090;-115.358;2022-09-09T16:04:45;87859.60;;;21.80
74374;BMP180;62809;51.090;-115.358;2022-09-09T16:07:12;87857.60;;;21.80
74374;BMP180;62809;51.090;-115.358;2022-09-09T16:09:41;87858.80;;;21.80
74374;BMP180;62809;51.090;-115.358;2022-09-09T16:12:09;87858.40;;;21.88
74374;BMP180;62809;51.090;-115.358;2022-09-09T16:14:39;87858.80;;;21.90
74374;BMP180;62809;51.090;-115.358;2022-09-09T16:17:10;87860.60;;;21.90
74374;BMP180;62809;51.090;-115.358;2022-09-09T16:19:40;87856.60;;;21.90
74374;BMP180;62809;51.090;-115.358;2022-09-09T16:22:08;87857.60;;;21.90
74374;BMP180;62809;51.090;-115.358;2022-09-09T16:24:36;87857.20;;;21.96